ADDS TAF Board (Experimental) INFO

IDs: Format: Expanded Condensed

Updated at: 0033 UTC 21 Oct 2014

KCLT - Charlotte/Douglas In, NC, US

Issued at 2332 UTC 20 Oct 2014
Time2352Z21/01Z21/02Z21/03Z21/04Z21/05Z21/06Z21/07Z21/08Z21/09Z21/10Z21/11Z21/12Z21/13Z
TypeOBSPRVLPRVLPRVLPRVLPRVLPRVLPRVLPRVLPRVLPRVLPRVLPRVLPRVL
VIS10>6>6>6>6>6>6>6>6>6>6>6>6>6
CIG--250250250250250250250------------
CoverSCTBKNBKNBKNBKNBKNBKNBKNSCTSCTSCTSCTSCTSCT
FltCat--VFRVFRVFRVFRVFRVFRVFRVFRVFRVFRVFRVFRVFR
WX----------------------------
WDirVRB200200200200200200200280280280280280280
WSpd03333333333333
WGst----------------------------
R05/23
XWndVRB-1-1-1-1-1-1-1222222
HWndVRB-3-3-3-3-3-3-3-2-2-2-2-2-2
R18/36
XWndVRB-1-1-1-1-1-1-1-3-3-3-3-3-3
HWndVRB3333333-1-1-1-1-1-1
Raw TAF
KCLT 202332Z 2100/2124 20003KT P6SM SCT160 BKN250
  FM210800 28003KT P6SM SCT250
  FM211600 28008KT P6SM FEW250
  FM212100 31008KT P6SM SCT050


Raw METAR
KCLT 202352Z 00000KT 10SM FEW180 SCT250 17/09 A3001 RMK AO2 SLP158 T01670094 10217 20167 53002

TAF Board Legend

Hazard VFR MVFR IFR LIFR
Visibility (sm) >5 3≤X≤5 1≤X<3 <1
Ceiling (100 ft) >30 10≤X≤30 5≤X<10 <5
Wind Speed (kt) <10 10≤X<20 20≤X<30 ≥30
Wind Gust (kt) <15 15≤X<25 25≤X<35 ≥35
Weather No Wx Reported VCTS,-TS,-FZRA TS,FZRA +TS,+FZRA


Page loaded:  00:33 UTC  |   05:33 PM Pacific  |   06:33 PM Mountain  |   07:33 PM Central  |   08:33 PM Eastern

 

ADVISORIES

FORECASTS

FORECASTS

OBSERVATIONS

USER TOOLS

ABOUT US